CheckWX is a tool to help pilots better visualize weather data.  It is not intended as a substitute for an official pre-flight weather briefing.

12:02:46 UTC

EGEC METAR
Campbeltown Airport
Campbeltown, United Kingdom
Current

13 mins ago

EGEC 251150Z 26008KT 9999 FEW025 10/06 Q1034
Observed
Mar-25 @ 11:50 UTC
Wind
  • 260° at 8 KTS
Visibility
10,000+ meters
Flight Rules
VFR
Cloud Levels
  • Few at 2,500' AGL
Temperature
10°C / 50°F
Dewpoint
C / 43°F
Humidity
76%
Altimeter
30.53" Hg
Pressure
1033.91 hPa
Previous

43 mins ago

EGEC 251120Z 26010KT 9999 FEW020 09/05 Q1034
Observed
Mar-25 @ 11:20 UTC
Wind
  • 260° at 10 KTS
Visibility
10,000+ meters
Flight Rules
VFR
Cloud Levels
  • Few at 2,000' AGL
Temperature
C / 48°F
Dewpoint
C / 41°F
Humidity
76%
Altimeter
30.53" Hg
Pressure
1033.91 hPa
Previous

1 hour ago

EGEC 251050Z 30010KT 9999 FEW020 09/05 Q1034
Observed
Mar-25 @ 10:50 UTC
Wind
  • 300° at 10 KTS
Visibility
10,000+ meters
Flight Rules
VFR
Cloud Levels
  • Few at 2,000' AGL
Temperature
C / 48°F
Dewpoint
C / 41°F
Humidity
76%
Altimeter
30.53" Hg
Pressure
1033.91 hPa